sensor_id;sensor_type;location;lat;lon;timestamp;pressure;altitude;pressure_sealevel;temperature
24586;BMP280;12743;52.262;6.172;2023-05-10T00:00:42;99104.25;;;13.48
24586;BMP280;12743;52.262;6.172;2023-05-10T00:03:09;99099.31;;;13.57
24586;BMP280;12743;52.262;6.172;2023-05-10T00:05:36;99105.00;;;13.52
24586;BMP280;12743;52.262;6.172;2023-05-10T00:08:02;99097.06;;;13.52
24586;BMP280;12743;52.262;6.172;2023-05-10T00:10:29;99093.31;;;13.56
24586;BMP280;12743;52.262;6.172;2023-05-10T00:12:55;99094.81;;;13.54
24586;BMP280;12743;52.262;6.172;2023-05-10T00:15:22;99093.28;;;13.60
24586;BMP280;12743;52.262;6.172;2023-05-10T00:17:49;99047.81;;;13.28
24586;BMP280;12743;52.262;6.172;2023-05-10T00:20:15;99090.25;;;13.58
24586;BMP280;12743;52.262;6.172;2023-05-10T00:22:42;99108.72;;;13.65
24586;BMP280;12743;52.262;6.172;2023-05-10T00:25:09;99092.56;;;13.56
24586;BMP280;12743;52.262;6.172;2023-05-10T00:27:36;99084.66;;;13.45
24586;BMP280;12743;52.262;6.172;2023-05-10T00:30:04;99092.56;;;13.52
24586;BMP280;12743;52.262;6.172;2023-05-10T00:32:31;99091.03;;;13.51
24586;BMP280;12743;52.262;6.172;2023-05-10T00:34:57;99092.19;;;13.47
24586;BMP280;12743;52.262;6.172;2023-05-10T00:37:24;99080.16;;;13.46
24586;BMP280;12743;52.262;6.172;2023-05-10T00:39:51;99082.03;;;13.45
24586;BMP280;12743;52.262;6.172;2023-05-10T00:42:17;99086.91;;;13.50
24586;BMP280;12743;52.262;6.172;2023-05-10T00:44:44;99085.06;;;13.44
24586;BMP280;12743;52.262;6.172;2023-05-10T00:47:11;99086.97;;;13.43
24586;BMP280;12743;52.262;6.172;2023-05-10T00:49:38;99084.69;;;13.42
24586;BMP280;12743;52.262;6.172;2023-05-10T00:52:04;99087.69;;;13.40
24586;BMP280;12743;52.262;6.172;2023-05-10T00:54:31;99081.69;;;13.40
24586;BMP280;12743;52.262;6.172;2023-05-10T00:56:58;99076.06;;;13.31
24586;BMP280;12743;52.262;6.172;2023-05-10T00:59:25;99085.81;;;13.41
24586;BMP280;12743;52.262;6.172;2023-05-10T01:01:51;99080.19;;;13.32
24586;BMP280;12743;52.262;6.172;2023-05-10T01:04:18;99052.75;;;13.15
24586;BMP280;12743;52.262;6.172;2023-05-10T01:06:46;99084.72;;;13.28
24586;BMP280;12743;52.262;6.172;2023-05-10T01:09:12;99082.09;;;13.28
24586;BMP280;12743;52.262;6.172;2023-05-10T01:11:39;99084.03;;;13.17
24586;BMP280;12743;52.262;6.172;2023-05-10T01:14:06;99078.00;;;13.09
24586;BMP280;12743;52.262;6.172;2023-05-10T01:16:40;99077.59;;;13.25
24586;BMP280;12743;52.262;6.172;2023-05-10T01:19:15;99070.81;;;13.24
24586;BMP280;12743;52.262;6.172;2023-05-10T01:21:56;99080.56;;;13.30
24586;BMP280;12743;52.262;6.172;2023-05-10T01:30:52;99075.69;;;13.36
24586;BMP280;12743;52.262;6.172;2023-05-10T01:36:05;99073.09;;;13.18
24586;BMP280;12743;52.262;6.172;2023-05-10T01:41:16;99081.34;;;13.24
24586;BMP280;12743;52.262;6.172;2023-05-10T01:43:54;99073.09;;;13.11
24586;BMP280;12743;52.262;6.172;2023-05-10T01:46:32;99077.22;;;13.19
24586;BMP280;12743;52.262;6.172;2023-05-10T01:49:02;99082.09;;;13.21
24586;BMP280;12743;52.262;6.172;2023-05-10T01:51:37;99084.03;;;13.17
24586;BMP280;12743;52.262;6.172;2023-05-10T01:54:05;99089.66;;;13.01
24586;BMP280;12743;52.262;6.172;2023-05-10T01:56:35;99052.81;;;12.87
24586;BMP280;12743;52.262;6.172;2023-05-10T01:59:10;99082.88;;;13.11
24586;BMP280;12743;52.262;6.172;2023-05-10T02:01:37;99078.38;;;13.01
24586;BMP280;12743;52.262;6.172;2023-05-10T02:04:06;99077.63;;;13.11
24586;BMP280;12743;52.262;6.172;2023-05-10T02:06:34;99080.63;;;13.13
24586;BMP280;12743;52.262;6.172;2023-05-10T02:09:02;99082.16;;;13.10
24586;BMP280;12743;52.262;6.172;2023-05-10T02:11:30;99084.41;;;12.98
24586;BMP280;12743;52.262;6.172;2023-05-10T02:13:57;99093.84;;;13.06
24586;BMP280;12743;52.262;6.172;2023-05-10T02:16:27;99083.63;;;13.01
24586;BMP280;12743;52.262;6.172;2023-05-10T02:18:57;99087.78;;;13.09
24586;BMP280;12743;52.262;6.172;2023-05-10T02:21:25;99092.31;;;12.98
24586;BMP280;12743;52.262;6.172;2023-05-10T02:23:53;99096.09;;;13.00
24586;BMP280;12743;52.262;6.172;2023-05-10T02:26:22;99085.94;;;13.06
24586;BMP280;12743;52.262;6.172;2023-05-10T02:28:50;99076.91;;;13.00
24586;BMP280;12743;52.262;6.172;2023-05-10T02:31:18;99085.94;;;13.06
24586;BMP280;12743;52.262;6.172;2023-05-10T02:33:45;99083.28;;;13.02
24586;BMP280;12743;52.262;6.172;2023-05-10T02:36:12;99085.94;;;12.99
24586;BMP280;12743;52.262;6.172;2023-05-10T02:38:40;99085.16;;;12.94
24586;BMP280;12743;52.262;6.172;2023-05-10T02:41:08;99078.03;;;12.95
24586;BMP280;12743;52.262;6.172;2023-05-10T02:43:37;99074.25;;;13.03
24586;BMP280;12743;52.262;6.172;2023-05-10T02:46:06;99074.25;;;13.03
24586;BMP280;12743;52.262;6.172;2023-05-10T02:48:34;99081.41;;;13.06
24586;BMP280;12743;52.262;6.172;2023-05-10T02:51:04;99054.31;;;12.84
24586;BMP280;12743;52.262;6.172;2023-05-10T02:53:34;99081.00;;;13.08
24586;BMP280;12743;52.262;6.172;2023-05-10T02:56:05;99081.41;;;13.06
24586;BMP280;12743;52.262;6.172;2023-05-10T02:58:36;99081.41;;;13.03
24586;BMP280;12743;52.262;6.172;2023-05-10T03:01:02;99081.03;;;13.04
24586;BMP280;12743;52.262;6.172;2023-05-10T03:03:29;99086.69;;;13.03
24586;BMP280;12743;52.262;6.172;2023-05-10T03:05:55;99083.31;;;12.99
24586;BMP280;12743;52.262;6.172;2023-05-10T03:08:23;99084.06;;;12.99
24586;BMP280;12743;52.262;6.172;2023-05-10T03:16:42;99076.88;;;13.10
24586;BMP280;12743;52.262;6.172;2023-05-10T03:19:16;99064.06;;;13.09
24586;BMP280;12743;52.262;6.172;2023-05-10T03:21:47;99061.78;;;13.07
24586;BMP280;12743;52.262;6.172;2023-05-10T03:24:16;99057.31;;;13.04
24586;BMP280;12743;52.262;6.172;2023-05-10T03:26:48;99058.81;;;13.02
24586;BMP280;12743;52.262;6.172;2023-05-10T03:29:17;99010.63;;;12.98
24586;BMP280;12743;52.262;6.172;2023-05-10T03:31:44;99016.66;;;12.98
24586;BMP280;12743;52.262;6.172;2023-05-10T03:34:12;99019.31;;;12.91
24586;BMP280;12743;52.262;6.172;2023-05-10T03:36:39;99012.94;;;12.92
24586;BMP280;12743;52.262;6.172;2023-05-10T03:39:06;99017.41;;;13.02
24586;BMP280;12743;52.262;6.172;2023-05-10T03:41:33;99015.19;;;12.97
24586;BMP280;12743;52.262;6.172;2023-05-10T03:43:59;99008.06;;;12.90
24586;BMP280;12743;52.262;6.172;2023-05-10T03:46:27;99020.81;;;13.03
24586;BMP280;12743;52.262;6.172;2023-05-10T03:48:54;99021.94;;;13.05
24586;BMP280;12743;52.262;6.172;2023-05-10T03:51:21;99032.13;;;13.00
24586;BMP280;12743;52.262;6.172;2023-05-10T03:53:48;99022.31;;;12.93
24586;BMP280;12743;52.262;6.172;2023-05-10T03:56:15;99036.97;;;13.05
24586;BMP280;12743;52.262;6.172;2023-05-10T03:58:41;99023.81;;;12.98
24586;BMP280;12743;52.262;6.172;2023-05-10T04:01:08;99031.38;;;12.92
24586;BMP280;12743;52.262;6.172;2023-05-10T04:03:34;99030.25;;;12.89
24586;BMP280;12743;52.262;6.172;2023-05-10T04:06:04;99031.00;;;12.86
24586;BMP280;12743;52.262;6.172;2023-05-10T04:08:31;99043.44;;;12.86
24586;BMP280;12743;52.262;6.172;2023-05-10T04:11:06;99049.81;;;12.92
24586;BMP280;12743;52.262;6.172;2023-05-10T04:13:33;99044.19;;;12.90
24586;BMP280;12743;52.262;6.172;2023-05-10T04:16:00;99055.06;;;12.88
24586;BMP280;12743;52.262;6.172;2023-05-10T04:18:26;99051.69;;;12.88
24586;BMP280;12743;52.262;6.172;2023-05-10T04:20:53;99057.72;;;12.85
24586;BMP280;12743;52.262;6.172;2023-05-10T04:23:19;99056.19;;;12.87
24586;BMP280;12743;52.262;6.172;2023-05-10T04:25:46;99056.19;;;12.87
24586;BMP280;12743;52.262;6.172;2023-05-10T04:28:12;99054.31;;;12.84
24586;BMP280;12743;52.262;6.172;2023-05-10T04:30:39;99046.44;;;12.84
24586;BMP280;12743;52.262;6.172;2023-05-10T04:33:06;99054.69;;;12.86
24586;BMP280;12743;52.262;6.172;2023-05-10T04:35:34;99053.94;;;12.93
24586;BMP280;12743;52.262;6.172;2023-05-10T04:38:01;99054.31;;;12.99
24586;BMP280;12743;52.262;6.172;2023-05-10T04:40:27;99049.44;;;12.97
24586;BMP280;12743;52.262;6.172;2023-05-10T04:42:54;99046.75;;;13.01
24586;BMP280;12743;52.262;6.172;2023-05-10T04:45:20;99061.09;;;13.03
24586;BMP280;12743;52.262;6.172;2023-05-10T04:47:47;99064.09;;;13.05
24586;BMP280;12743;52.262;6.172;2023-05-10T04:50:14;99066.34;;;13.10
24586;BMP280;12743;52.262;6.172;2023-05-10T04:52:41;99074.28;;;13.00
24586;BMP280;12743;52.262;6.172;2023-05-10T04:55:07;99075.75;;;13.11
24586;BMP280;12743;52.262;6.172;2023-05-10T04:57:35;99079.50;;;13.07
24586;BMP280;12743;52.262;6.172;2023-05-10T05:00:02;99091.56;;;13.04
24586;BMP280;12743;52.262;6.172;2023-05-10T05:02:29;99086.69;;;13.06
24586;BMP280;12743;52.262;6.172;2023-05-10T05:04:56;99086.28;;;13.08
24586;BMP280;12743;52.262;6.172;2023-05-10T05:07:24;99089.31;;;13.10
24586;BMP280;12743;52.262;6.172;2023-05-10T05:09:50;99095.69;;;13.02
24586;BMP280;12743;52.262;6.172;2023-05-10T05:12:17;99099.44;;;13.01
24586;BMP280;12743;52.262;6.172;2023-05-10T05:14:43;99098.34;;;12.94
24586;BMP280;12743;52.262;6.172;2023-05-10T05:17:10;99104.38;;;12.99
24586;BMP280;12743;52.262;6.172;2023-05-10T05:19:36;99103.59;;;12.94
24586;BMP280;12743;52.262;6.172;2023-05-10T05:22:03;99094.97;;;12.98
24586;BMP280;12743;52.262;6.172;2023-05-10T05:24:34;99108.13;;;13.01
24586;BMP280;12743;52.262;6.172;2023-05-10T05:27:02;99111.91;;;13.00
24586;BMP280;12743;52.262;6.172;2023-05-10T05:29:28;99088.22;;;12.86
24586;BMP280;12743;52.262;6.172;2023-05-10T05:31:55;99116.03;;;13.01
24586;BMP280;12743;52.262;6.172;2023-05-10T05:34:21;99125.09;;;13.04
24586;BMP280;12743;52.262;6.172;2023-05-10T05:36:48;99122.06;;;12.94
24586;BMP280;12743;52.262;6.172;2023-05-10T05:39:15;99123.56;;;12.88
24586;BMP280;12743;52.262;6.172;2023-05-10T05:41:41;99131.13;;;12.79
24586;BMP280;12743;52.262;6.172;2023-05-10T05:44:08;99124.72;;;12.80
24586;BMP280;12743;52.262;6.172;2023-05-10T05:46:35;99125.09;;;12.82
24586;BMP280;12743;52.262;6.172;2023-05-10T05:49:01;99131.09;;;12.86
24586;BMP280;12743;52.262;6.172;2023-05-10T05:51:28;99141.66;;;12.83
24586;BMP280;12743;52.262;6.172;2023-05-10T05:53:55;99129.94;;;12.87
24586;BMP280;12743;52.262;6.172;2023-05-10T05:56:21;99139.78;;;12.90
24586;BMP280;12743;52.262;6.172;2023-05-10T05:58:51;99137.13;;;13.05
24586;BMP280;12743;52.262;6.172;2023-05-10T06:01:17;99136.34;;;13.01
24586;BMP280;12743;52.262;6.172;2023-05-10T06:03:44;99143.50;;;12.93
24586;BMP280;12743;52.262;6.172;2023-05-10T06:06:10;99139.75;;;12.98
24586;BMP280;12743;52.262;6.172;2023-05-10T06:08:37;99151.44;;;13.04
24586;BMP280;12743;52.262;6.172;2023-05-10T06:11:03;99153.69;;;12.98
24586;BMP280;12743;52.262;6.172;2023-05-10T06:13:30;99153.69;;;12.98
24586;BMP280;12743;52.262;6.172;2023-05-10T06:15:59;99155.97;;;13.00
24586;BMP280;12743;52.262;6.172;2023-05-10T06:18:25;99156.66;;;13.07
24586;BMP280;12743;52.262;6.172;2023-05-10T06:20:52;99147.63;;;13.01
24586;BMP280;12743;52.262;6.172;2023-05-10T06:23:19;99155.53;;;13.01
24586;BMP280;12743;52.262;6.172;2023-05-10T06:25:45;99155.19;;;12.99
24586;BMP280;12743;52.262;6.172;2023-05-10T06:28:12;99135.63;;;12.86
24586;BMP280;12743;52.262;6.172;2023-05-10T06:30:38;99146.91;;;12.93
24586;BMP280;12743;52.262;6.172;2023-05-10T06:33:05;99156.72;;;12.97
24586;BMP280;12743;52.262;6.172;2023-05-10T06:35:32;99152.56;;;13.03
24586;BMP280;12743;52.262;6.172;2023-05-10T06:37:59;99146.16;;;12.93
24586;BMP280;12743;52.262;6.172;2023-05-10T06:40:26;99162.69;;;13.01
24586;BMP280;12743;52.262;6.172;2023-05-10T06:42:53;99170.63;;;12.93
24586;BMP280;12743;52.262;6.172;2023-05-10T06:45:19;99165.72;;;13.03
24586;BMP280;12743;52.262;6.172;2023-05-10T06:47:46;99157.09;;;13.06
24586;BMP280;12743;52.262;6.172;2023-05-10T06:50:13;99174.75;;;13.02
24586;BMP280;12743;52.262;6.172;2023-05-10T06:52:39;99170.25;;;12.99
24586;BMP280;12743;52.262;6.172;2023-05-10T06:55:06;99158.59;;;12.96
24586;BMP280;12743;52.262;6.172;2023-05-10T06:57:33;99180.03;;;13.02
24586;BMP280;12743;52.262;6.172;2023-05-10T07:00:00;99185.69;;;12.97
24586;BMP280;12743;52.262;6.172;2023-05-10T07:02:27;99182.66;;;12.98
24586;BMP280;12743;52.262;6.172;2023-05-10T07:04:54;99187.56;;;12.89
24586;BMP280;12743;52.262;6.172;2023-05-10T07:07:20;99186.81;;;12.92
24586;BMP280;12743;52.262;6.172;2023-05-10T07:09:47;99181.16;;;12.93
24586;BMP280;12743;52.262;6.172;2023-05-10T07:12:14;99196.22;;;13.00
24586;BMP280;12743;52.262;6.172;2023-05-10T07:14:42;99160.81;;;12.80
24586;BMP280;12743;52.262;6.172;2023-05-10T07:17:08;99190.22;;;13.00
24586;BMP280;12743;52.262;6.172;2023-05-10T07:19:35;99192.09;;;13.10
24586;BMP280;12743;52.262;6.172;2023-05-10T07:22:02;99176.25;;;12.81
24586;BMP280;12743;52.262;6.172;2023-05-10T07:24:29;99180.03;;;12.77
24586;BMP280;12743;52.262;6.172;2023-05-10T07:26:57;99210.16;;;13.04
24586;BMP280;12743;52.262;6.172;2023-05-10T07:29:23;99212.38;;;12.95
24586;BMP280;12743;52.262;6.172;2023-05-10T07:31:50;99229.75;;;13.00
24586;BMP280;12743;52.262;6.172;2023-05-10T07:34:17;99217.69;;;13.06
24586;BMP280;12743;52.262;6.172;2023-05-10T07:36:43;99221.06;;;13.10
24586;BMP280;12743;52.262;6.172;2023-05-10T07:39:10;99228.22;;;13.06
24586;BMP280;12743;52.262;6.172;2023-05-10T07:41:41;99223.69;;;13.03
24586;BMP280;12743;52.262;6.172;2023-05-10T07:44:08;99227.09;;;12.96
24586;BMP280;12743;52.262;6.172;2023-05-10T07:46:34;99223.69;;;13.13
24586;BMP280;12743;52.262;6.172;2023-05-10T07:49:01;99222.94;;;13.30
24586;BMP280;12743;52.262;6.172;2023-05-10T07:51:27;99236.16;;;13.23
24586;BMP280;12743;52.262;6.172;2023-05-10T07:53:54;99200.38;;;12.83
24586;BMP280;12743;52.262;6.172;2023-05-10T07:56:26;99240.66;;;13.16
24586;BMP280;12743;52.262;6.172;2023-05-10T07:58:56;99215.41;;;13.01
24586;BMP280;12743;52.262;6.172;2023-05-10T08:01:22;99258.38;;;13.19
24586;BMP280;12743;52.262;6.172;2023-05-10T08:03:49;99248.91;;;13.14
24586;BMP280;12743;52.262;6.172;2023-05-10T08:06:18;99257.22;;;13.27
24586;BMP280;12743;52.262;6.172;2023-05-10T08:08:46;99267.75;;;13.27
24586;BMP280;12743;52.262;6.172;2023-05-10T08:11:16;99265.53;;;13.25
24586;BMP280;12743;52.262;6.172;2023-05-10T08:13:47;99231.22;;;13.15
24586;BMP280;12743;52.262;6.172;2023-05-10T08:16:14;99269.63;;;13.40
24586;BMP280;12743;52.262;6.172;2023-05-10T08:18:41;99241.75;;;13.15
24586;BMP280;12743;52.262;6.172;2023-05-10T08:21:07;99277.91;;;13.39
24586;BMP280;12743;52.262;6.172;2023-05-10T08:23:34;99262.13;;;13.49
24586;BMP280;12743;52.262;6.172;2023-05-10T08:26:00;99270.00;;;13.60
24586;BMP280;12743;52.262;6.172;2023-05-10T08:28:27;99253.44;;;13.52
24586;BMP280;12743;52.262;6.172;2023-05-10T08:30:54;99268.16;;;13.50
24586;BMP280;12743;52.262;6.172;2023-05-10T08:33:20;99279.06;;;13.59
24586;BMP280;12743;52.262;6.172;2023-05-10T08:35:47;99279.41;;;13.68
24586;BMP280;12743;52.262;6.172;2023-05-10T08:38:14;99291.13;;;13.42
24586;BMP280;12743;52.262;6.172;2023-05-10T08:40:42;99285.06;;;13.66
24586;BMP280;12743;52.262;6.172;2023-05-10T08:43:10;99300.53;;;13.68
24586;BMP280;12743;52.262;6.172;2023-05-10T08:45:39;99278.66;;;13.75
24586;BMP280;12743;52.262;6.172;2023-05-10T08:48:07;99281.66;;;13.87
24586;BMP280;12743;52.262;6.172;2023-05-10T08:50:39;99304.25;;;13.78
24586;BMP280;12743;52.262;6.172;2023-05-10T08:53:10;99294.84;;;13.80
24586;BMP280;12743;52.262;6.172;2023-05-10T08:55:37;99293.34;;;13.79
24586;BMP280;12743;52.262;6.172;2023-05-10T08:58:06;99312.19;;;13.78
24586;BMP280;12743;52.262;6.172;2023-05-10T09:00:33;99314.84;;;13.46
24586;BMP280;12743;52.262;6.172;2023-05-10T09:03:01;99317.44;;;13.85
24586;BMP280;12743;52.262;6.172;2023-05-10T09:05:28;99327.25;;;13.81
24586;BMP280;12743;52.262;6.172;2023-05-10T09:07:54;99331.00;;;13.90
24586;BMP280;12743;52.262;6.172;2023-05-10T09:10:21;99335.91;;;14.06
24586;BMP280;12743;52.262;6.172;2023-05-10T09:12:50;99329.09;;;14.01
24586;BMP280;12743;52.262;6.172;2023-05-10T09:15:18;99347.94;;;14.17
24586;BMP280;12743;52.262;6.172;2023-05-10T09:17:47;99362.63;;;14.25
24586;BMP280;12743;52.262;6.172;2023-05-10T09:20:13;99354.69;;;14.25
24586;BMP280;12743;52.262;6.172;2023-05-10T09:22:40;99349.81;;;14.17
24586;BMP280;12743;52.262;6.172;2023-05-10T09:25:15;99359.59;;;14.13
24586;BMP280;12743;52.262;6.172;2023-05-10T09:27:47;99375.13;;;13.93
24586;BMP280;12743;52.262;6.172;2023-05-10T09:30:23;99375.09;;;14.04
24586;BMP280;12743;52.262;6.172;2023-05-10T09:32:50;99370.56;;;14.01
24586;BMP280;12743;52.262;6.172;2023-05-10T09:35:19;99351.34;;;14.18
24586;BMP280;12743;52.262;6.172;2023-05-10T09:37:48;99351.34;;;14.07
24586;BMP280;12743;52.262;6.172;2023-05-10T09:40:17;99381.16;;;13.90
24586;BMP280;12743;52.262;6.172;2023-05-10T09:43:03;99383.44;;;13.88
24586;BMP280;12743;52.262;6.172;2023-05-10T09:45:31;99396.97;;;13.83
24586;BMP280;12743;52.262;6.172;2023-05-10T09:47:58;99406.81;;;13.86
24586;BMP280;12743;52.262;6.172;2023-05-10T09:50:26;99406.06;;;13.86
24586;BMP280;12743;52.262;6.172;2023-05-10T09:52:58;99410.53;;;14.13
24586;BMP280;12743;52.262;6.172;2023-05-10T09:55:38;99388.72;;;13.99
24586;BMP280;12743;52.262;6.172;2023-05-10T09:58:05;99414.31;;;14.23
24586;BMP280;12743;52.262;6.172;2023-05-10T10:00:38;99430.16;;;14.19
24586;BMP280;12743;52.262;6.172;2023-05-10T10:03:05;99437.72;;;14.10
24586;BMP280;12743;52.262;6.172;2023-05-10T10:05:33;99442.97;;;14.21
24586;BMP280;12743;52.262;6.172;2023-05-10T10:08:03;99435.81;;;14.14
24586;BMP280;12743;52.262;6.172;2023-05-10T10:10:31;99433.94;;;14.15
24586;BMP280;12743;52.262;6.172;2023-05-10T10:12:58;99437.34;;;14.08
24586;BMP280;12743;52.262;6.172;2023-05-10T10:15:25;99436.22;;;14.06
24586;BMP280;12743;52.262;6.172;2023-05-10T10:17:53;99434.31;;;14.17
24586;BMP280;12743;52.262;6.172;2023-05-10T10:20:21;99427.91;;;14.18
24586;BMP280;12743;52.262;6.172;2023-05-10T10:22:48;99415.44;;;14.29
24586;BMP280;12743;52.262;6.172;2023-05-10T10:25:16;99418.41;;;14.52
24586;BMP280;12743;52.262;6.172;2023-05-10T10:30:31;99438.81;;;14.34
24586;BMP280;12743;52.262;6.172;2023-05-10T10:35:52;99468.59;;;14.56
24586;BMP280;12743;52.262;6.172;2023-05-10T10:38:20;99507.06;;;14.60
24586;BMP280;12743;52.262;6.172;2023-05-10T10:40:47;99493.06;;;14.74
24586;BMP280;12743;52.262;6.172;2023-05-10T10:43:24;99534.97;;;14.79
24586;BMP280;12743;52.262;6.172;2023-05-10T10:46:14;99514.50;;;15.00
24586;BMP280;12743;52.262;6.172;2023-05-10T10:49:10;99534.16;;;14.89
24586;BMP280;12743;52.262;6.172;2023-05-10T10:51:37;99523.97;;;14.91
24586;BMP280;12743;52.262;6.172;2023-05-10T10:54:10;99591.22;;;14.72
24586;BMP280;12743;52.262;6.172;2023-05-10T10:56:37;99563.63;;;14.84
24586;BMP280;12743;52.262;6.172;2023-05-10T10:59:04;99575.38;;;14.76
24586;BMP280;12743;52.262;6.172;2023-05-10T11:01:33;99568.22;;;14.66
24586;BMP280;12743;52.262;6.172;2023-05-10T11:08:58;99570.06;;;14.86
24586;BMP280;12743;52.262;6.172;2023-05-10T11:11:24;99535.63;;;15.14
24586;BMP280;12743;52.262;6.172;2023-05-10T11:13:51;99532.19;;;15.21
24586;BMP280;12743;52.262;6.172;2023-05-10T11:16:22;99604.38;;;15.07
24586;BMP280;12743;52.262;6.172;2023-05-10T11:19:02;99567.28;;;15.32
24586;BMP280;12743;52.262;6.172;2023-05-10T11:21:32;99527.59;;;15.32
24586;BMP280;12743;52.262;6.172;2023-05-10T11:24:00;99566.22;;;15.15
24586;BMP280;12743;52.262;6.172;2023-05-10T11:26:32;99578.63;;;15.25
24586;BMP280;12743;52.262;6.172;2023-05-10T11:28:59;99624.03;;;14.92
24586;BMP280;12743;52.262;6.172;2023-05-10T11:31:27;99665.53;;;15.38
24586;BMP280;12743;52.262;6.172;2023-05-10T11:33:56;99692.75;;;15.35
24586;BMP280;12743;52.262;6.172;2023-05-10T11:36:25;99735.09;;;15.17
24586;BMP280;12743;52.262;6.172;2023-05-10T11:38:52;99700.59;;;15.66
24586;BMP280;12743;52.262;6.172;2023-05-10T11:41:20;99662.88;;;15.48
24586;BMP280;12743;52.262;6.172;2023-05-10T11:43:51;99742.97;;;15.49
24586;BMP280;12743;52.262;6.172;2023-05-10T11:46:22;99739.50;;;15.76
24586;BMP280;12743;52.262;6.172;2023-05-10T11:48:50;99760.31;;;15.74
24586;BMP280;12743;52.262;6.172;2023-05-10T11:51:21;99757.72;;;15.46
24586;BMP280;12743;52.262;6.172;2023-05-10T11:53:49;99713.84;;;15.66
24586;BMP280;12743;52.262;6.172;2023-05-10T11:56:16;99714.59;;;15.63
24586;BMP280;12743;52.262;6.172;2023-05-10T11:58:43;99735.72;;;15.84
24586;BMP280;12743;52.262;6.172;2023-05-10T12:01:10;99749.25;;;16.04
24586;BMP280;12743;52.262;6.172;2023-05-10T12:03:37;99726.84;;;16.15
24586;BMP280;12743;52.262;6.172;2023-05-10T12:06:04;99784.03;;;16.13
24586;BMP280;12743;52.262;6.172;2023-05-10T12:08:31;99757.19;;;16.00
24586;BMP280;12743;52.262;6.172;2023-05-10T12:11:08;99738.75;;;16.52
24586;BMP280;12743;52.262;6.172;2023-05-10T12:13:41;99795.25;;;16.38
24586;BMP280;12743;52.262;6.172;2023-05-10T12:16:23;99849.06;;;16.17
24586;BMP280;12743;52.262;6.172;2023-05-10T12:18:56;99788.56;;;16.12
24586;BMP280;12743;52.262;6.172;2023-05-10T12:21:24;99802.22;;;16.07
24586;BMP280;12743;52.262;6.172;2023-05-10T12:23:58;99801.38;;;16.21
24586;BMP280;12743;52.262;6.172;2023-05-10T12:26:25;99799.56;;;16.00
24586;BMP280;12743;52.262;6.172;2023-05-10T12:28:55;99789.38;;;15.99
24586;BMP280;12743;52.262;6.172;2023-05-10T12:31:57;99782.16;;;15.99
24586;BMP280;12743;52.262;6.172;2023-05-10T12:34:25;99832.53;;;15.85
24586;BMP280;12743;52.262;6.172;2023-05-10T12:36:53;99829.09;;;15.88
24586;BMP280;12743;52.262;6.172;2023-05-10T12:39:19;99785.56;;;16.07
24586;BMP280;12743;52.262;6.172;2023-05-10T12:41:46;99810.16;;;16.07
24586;BMP280;12743;52.262;6.172;2023-05-10T12:44:12;99852.94;;;15.92
24586;BMP280;12743;52.262;6.172;2023-05-10T12:46:39;99781.75;;;16.04
24586;BMP280;12743;52.262;6.172;2023-05-10T12:49:06;99752.75;;;15.69
24586;BMP280;12743;52.262;6.172;2023-05-10T12:51:35;99763.25;;;16.01
24586;BMP280;12743;52.262;6.172;2023-05-10T12:54:02;99849.97;;;15.44
24586;BMP280;12743;52.262;6.172;2023-05-10T12:56:29;99829.53;;;15.62
24586;BMP280;12743;52.262;6.172;2023-05-10T12:58:55;99760.63;;;15.94
24586;BMP280;12743;52.262;6.172;2023-05-10T13:01:22;99762.13;;;15.91
24586;BMP280;12743;52.262;6.172;2023-05-10T13:03:48;99766.31;;;15.85
24586;BMP280;12743;52.262;6.172;2023-05-10T13:06:15;99755.34;;;15.90
24586;BMP280;12743;52.262;6.172;2023-05-10T13:08:42;99785.66;;;15.75
24586;BMP280;12743;52.262;6.172;2023-05-10T13:11:08;99699.81;;;15.76
24586;BMP280;12743;52.262;6.172;2023-05-10T13:13:35;99798.53;;;15.49
24586;BMP280;12743;52.262;6.172;2023-05-10T13:16:01;99808.38;;;15.55
24586;BMP280;12743;52.262;6.172;2023-05-10T13:18:28;99805.31;;;15.67
24586;BMP280;12743;52.262;6.172;2023-05-10T13:20:54;99795.16;;;15.41
24586;BMP280;12743;52.262;6.172;2023-05-10T13:23:22;99772.00;;;15.84
24586;BMP280;12743;52.262;6.172;2023-05-10T13:25:48;99774.69;;;15.80
24586;BMP280;12743;52.262;6.172;2023-05-10T13:28:15;99723.47;;;16.04
24586;BMP280;12743;52.262;6.172;2023-05-10T13:30:41;99757.50;;;16.24
24586;BMP280;12743;52.262;6.172;2023-05-10T13:33:08;99811.22;;;16.24
24586;BMP280;12743;52.262;6.172;2023-05-10T13:35:35;99856.31;;;16.03
24586;BMP280;12743;52.262;6.172;2023-05-10T13:38:01;99845.28;;;16.22
24586;BMP280;12743;52.262;6.172;2023-05-10T13:40:28;99890.00;;;15.95
24586;BMP280;12743;52.262;6.172;2023-05-10T13:42:54;99880.16;;;16.06
24586;BMP280;12743;52.262;6.172;2023-05-10T13:45:21;99842.94;;;16.38
24586;BMP280;12743;52.262;6.172;2023-05-10T13:47:47;99824.59;;;16.72
24586;BMP280;12743;52.262;6.172;2023-05-10T13:50:14;99817.16;;;16.49
24586;BMP280;12743;52.262;6.172;2023-05-10T13:52:41;99881.84;;;16.59
24586;BMP280;12743;52.262;6.172;2023-05-10T13:55:07;99913.72;;;16.45
24586;BMP280;12743;52.262;6.172;2023-05-10T13:57:34;99882.22;;;16.64
24586;BMP280;12743;52.262;6.172;2023-05-10T14:00:02;99924.78;;;16.19
24586;BMP280;12743;52.262;6.172;2023-05-10T14:02:33;99890.78;;;15.92
24586;BMP280;12743;52.262;6.172;2023-05-10T14:04:59;99825.56;;;16.34
24586;BMP280;12743;52.262;6.172;2023-05-10T14:07:26;99888.81;;;16.17
24586;BMP280;12743;52.262;6.172;2023-05-10T14:09:52;99879.72;;;16.29
24586;BMP280;12743;52.262;6.172;2023-05-10T14:12:19;99856.25;;;16.24
24586;BMP280;12743;52.262;6.172;2023-05-10T14:14:45;99876.34;;;16.11
24586;BMP280;12743;52.262;6.172;2023-05-10T14:17:12;99856.31;;;16.06
24586;BMP280;12743;52.262;6.172;2023-05-10T14:19:38;99900.19;;;16.14
24586;BMP280;12743;52.262;6.172;2023-05-10T14:22:05;99845.22;;;16.43
24586;BMP280;12743;52.262;6.172;2023-05-10T14:24:32;99876.31;;;16.29
24586;BMP280;12743;52.262;6.172;2023-05-10T14:26:58;99845.91;;;16.54
24586;BMP280;12743;52.262;6.172;2023-05-10T14:29:25;99833.88;;;16.36
24586;BMP280;12743;52.262;6.172;2023-05-10T14:31:52;99871.00;;;16.36
24586;BMP280;12743;52.262;6.172;2023-05-10T14:34:18;99829.28;;;16.47
24586;BMP280;12743;52.262;6.172;2023-05-10T14:36:45;99813.16;;;16.20
24586;BMP280;12743;52.262;6.172;2023-05-10T14:39:11;99846.66;;;16.55
24586;BMP280;12743;52.262;6.172;2023-05-10T14:41:39;99842.13;;;16.55